Time;durP1;ratioP1;P1;durP2;ratioP2;P2;SDS_P1;SDS_P2;PMS_P1;PMS_P2;Temp;Humidity;BMP_temperature;BMP_pressure;BME280_temperature;BME280_humidity;BME280_pressure;Samples;Min_cycle;Max_cycle;Signal;HPM_P1;HPM_P2
2021/04/24 00:00:29;;;;;;;0.20;0.20;;;;;;;3.59;75.07;100761.73;1727002;82;21155;-44
2021/04/24 00:02:57;;;;;;;0.03;0.03;;;;;;;3.57;75.21;100765.19;1727069;81;21145;-44
2021/04/24 00:05:28;;;;;;;0.55;0.55;;;;;;;3.52;75.33;100759.63;1727070;83;21131;-44
2021/04/24 00:08:04;;;;;;;0.13;0.13;;;;;;;3.49;75.45;100765.47;1727115;81;21146;-44
2021/04/24 00:10:35;;;;;;;0.45;0.45;;;;;;;3.45;75.58;100765.10;1726777;81;21146;-44
2021/04/24 00:13:03;;;;;;;0.37;0.37;;;;;;;3.38;75.72;100766.52;1726809;81;21127;-44
2021/04/24 00:15:31;;;;;;;0.10;0.10;;;;;;;3.33;75.86;100767.72;1726949;83;21114;-44
2021/04/24 00:18:01;;;;;;;0.05;0.05;;;;;;;3.29;76.01;100775.98;1726912;81;21470;-43
2021/04/24 00:20:28;;;;;;;0.10;0.10;;;;;;;3.22;76.18;100769.28;1727224;83;21397;-44
2021/04/24 00:22:56;;;;;;;0.15;0.15;;;;;;;3.17;76.32;100769.66;1727085;81;21186;-44
2021/04/24 00:25:25;;;;;;;0.20;0.20;;;;;;;3.13;76.50;100779.24;1700469;83;21150;-44
2021/04/24 00:27:53;;;;;;;0.00;0.00;;;;;;;3.07;76.75;100775.56;1726956;81;21134;-44
2021/04/24 00:30:21;;;;;;;0.20;0.20;;;;;;;3.04;76.99;100778.69;1700036;83;21134;-43
2021/04/24 00:32:48;;;;;;;0.08;0.08;;;;;;;3.01;77.18;100777.26;1726834;81;21162;-44
2021/04/24 00:35:18;;;;;;;1.00;0.85;;;;;;;3.00;77.37;100780.20;1726803;83;21585;-44
2021/04/24 00:37:46;;;;;;;0.55;0.40;;;;;;;2.98;77.54;100780.41;1699920;81;21162;-44
2021/04/24 00:40:16;;;;;;;0.00;0.00;;;;;;;2.94;77.75;100780.56;1726768;82;21154;-44
2021/04/24 00:42:45;;;;;;;0.10;0.10;;;;;;;2.93;77.92;100774.84;1726891;81;21127;-44
2021/04/24 00:45:13;;;;;;;0.00;0.00;;;;;;;2.93;78.03;100776.20;1727074;83;21149;-44
2021/04/24 00:47:41;;;;;;;0.10;0.10;;;;;;;2.89;78.10;100773.63;1727029;82;21111;-43
2021/04/24 00:50:10;;;;;;;0.00;0.00;;;;;;;2.87;78.15;100773.05;1727223;82;21561;-44
2021/04/24 00:52:37;;;;;;;0.00;0.00;;;;;;;2.86;78.27;100772.72;1727047;83;21154;-44
2021/04/24 00:55:06;;;;;;;0.10;0.10;;;;;;;2.85;78.30;100777.02;1727208;81;21284;-43
2021/04/24 00:57:33;;;;;;;0.13;0.13;;;;;;;2.83;78.37;100775.87;1727176;82;21158;-44
2021/04/24 01:00:00;;;;;;;0.05;0.05;;;;;;;2.82;78.40;100787.73;1726877;81;21569;-44
2021/04/24 01:02:28;;;;;;;0.20;0.20;;;;;;;2.83;78.45;100785.31;1727008;82;21537;-44
2021/04/24 01:04:56;;;;;;;0.10;0.10;;;;;;;2.83;78.49;100786.66;1727163;81;21442;-43
2021/04/24 01:07:23;;;;;;;0.20;0.20;;;;;;;2.81;78.47;100787.41;1727084;83;21130;-44
2021/04/24 01:09:51;;;;;;;0.15;0.15;;;;;;;2.78;78.50;100775.70;1729782;81;21118;-44
2021/04/24 01:12:18;;;;;;;0.60;0.20;;;;;;;2.77;78.58;100786.21;1732415;82;21141;-44
2021/04/24 01:14:46;;;;;;;1.75;0.80;;;;;;;2.76;78.54;100782.66;1732455;81;21206;-43
2021/04/24 01:17:13;;;;;;;0.20;0.20;;;;;;;2.76;78.53;100793.98;1701737;82;21670;-43
2021/04/24 01:19:41;;;;;;;2.60;0.60;;;;;;;2.73;78.54;100786.34;1732306;81;21118;-44
2021/04/24 01:22:09;;;;;;;0.20;0.20;;;;;;;2.70;78.57;100786.78;1732409;82;21150;-44
2021/04/24 01:24:38;;;;;;;0.10;0.10;;;;;;;2.66;78.57;100786.91;1732297;81;21189;-43
2021/04/24 01:27:06;;;;;;;0.08;0.08;;;;;;;2.63;78.61;100794.91;1732424;82;21125;-44
2021/04/24 01:29:35;;;;;;;0.15;0.15;;;;;;;2.59;78.63;100793.16;1732405;81;21137;-44
2021/04/24 01:32:04;;;;;;;0.20;0.20;;;;;;;2.54;78.71;100800.27;1732678;82;21137;-44
2021/04/24 01:34:32;;;;;;;0.10;0.10;;;;;;;2.47;78.81;100800.30;1732633;81;21161;-44
2021/04/24 01:37:00;;;;;;;0.20;0.20;;;;;;;2.44;78.87;100798.04;1732637;82;21133;-44
2021/04/24 01:39:29;;;;;;;0.10;0.10;;;;;;;2.39;78.94;100795.17;1732586;81;21539;-44
2021/04/24 01:41:56;;;;;;;0.00;0.00;;;;;;;2.34;79.02;100796.34;1732692;82;21114;-44
2021/04/24 01:44:24;;;;;;;0.20;0.20;;;;;;;2.29;79.09;100799.69;1732772;81;21102;-44
2021/04/24 01:46:52;;;;;;;0.37;0.37;;;;;;;2.25;79.21;100800.33;1732753;82;21502;-44
2021/04/24 01:49:20;;;;;;;0.20;0.20;;;;;;;2.21;79.30;100803.98;1675056;85;21240;-43
2021/04/24 01:51:48;;;;;;;0.90;0.37;;;;;;;2.21;79.40;100805.86;1720958;83;21116;-44
2021/04/24 01:54:15;;;;;;;1.02;0.82;;;;;;;2.21;79.42;100797.78;1695087;83;21137;-43
2021/04/24 01:56:51;;;;;;;0.00;0.00;;;;;;;2.21;79.45;100810.73;1695480;84;21146;-44
2021/04/24 01:59:22;;;;;;;0.10;0.10;;;;;;;2.20;79.47;100801.00;1695275;83;21147;-44
2021/04/24 02:01:53;;;;;;;0.00;0.00;;;;;;;2.20;79.43;100804.19;1703383;83;21157;-43
2021/04/24 02:04:22;;;;;;;2.17;0.60;;;;;;;2.18;79.44;100810.31;1710374;82;21580;-43
2021/04/24 02:06:49;;;;;;;1.17;0.28;;;;;;;2.17;79.49;100808.67;1732625;82;21161;-43
2021/04/24 02:09:18;;;;;;;0.20;0.20;;;;;;;2.19;79.47;100817.38;1732503;81;21517;-44
2021/04/24 02:12:11;;;;;;;0.80;0.80;;;;;;;2.21;79.47;100818.00;1732485;82;21141;-43
2021/04/24 02:14:44;;;;;;;0.72;0.72;;;;;;;2.24;79.38;100813.52;1732441;81;21555;-43
2021/04/24 02:17:16;;;;;;;1.37;0.30;;;;;;;2.24;79.29;100814.34;1729317;82;21121;-44
2021/04/24 02:19:43;;;;;;;0.57;0.57;;;;;;;2.25;79.29;100811.11;1673639;84;21184;-43
2021/04/24 02:22:11;;;;;;;0.42;0.42;;;;;;;2.22;79.22;100810.20;1713637;82;21122;-44
2021/04/24 02:24:53;;;;;;;0.00;0.00;;;;;;;2.23;79.15;100814.05;1732610;81;21158;-43
2021/04/24 02:27:21;;;;;;;1.27;1.27;;;;;;;2.20;79.10;100809.59;1732601;82;21548;-44
2021/04/24 02:29:50;;;;;;;0.33;0.33;;;;;;;2.19;79.08;100808.77;1732347;81;21114;-43
2021/04/24 02:32:18;;;;;;;0.00;0.00;;;;;;;2.15;79.08;100811.08;1732510;82;21142;-43
2021/04/24 02:34:46;;;;;;;0.35;0.35;;;;;;;2.13;79.08;100813.16;1732478;81;21137;-44
2021/04/24 02:37:15;;;;;;;0.23;0.23;;;;;;;2.11;79.10;100817.93;1732692;82;21484;-44
2021/04/24 02:39:45;;;;;;;0.57;0.30;;;;;;;2.10;79.07;100818.98;1732231;81;21193;-43
2021/04/24 02:42:19;;;;;;;2.17;0.95;;;;;;;2.05;79.13;100824.20;1732620;82;21522;-43
2021/04/24 02:44:48;;;;;;;0.00;0.00;;;;;;;2.00;79.24;100833.41;1701048;82;21208;-43
2021/04/24 02:47:17;;;;;;;0.20;0.20;;;;;;;1.95;79.31;100837.27;1732233;82;21589;-43
2021/04/24 02:49:44;;;;;;;0.00;0.00;;;;;;;1.91;79.43;100833.37;1701750;82;21575;-43
2021/04/24 02:52:11;;;;;;;0.00;0.00;;;;;;;1.88;79.62;100839.16;1732163;82;21150;-44
2021/04/24 02:54:39;;;;;;;0.88;0.88;;;;;;;1.89;79.76;100843.53;1732283;81;21509;-44
2021/04/24 02:57:06;;;;;;;0.00;0.00;;;;;;;1.91;79.92;100838.76;1731693;82;21133;-43
2021/04/24 02:59:34;;;;;;;0.08;0.08;;;;;;;1.98;79.99;100844.10;1732314;82;21163;-44
2021/04/24 03:02:01;;;;;;;1.12;0.23;;;;;;;2.01;79.90;100841.83;1732361;82;21155;-44
2021/04/24 03:04:29;;;;;;;1.12;0.30;;;;;;;2.07;79.87;100852.27;1732120;82;21557;-44
2021/04/24 03:06:56;;;;;;;0.03;0.03;;;;;;;2.10;79.82;100860.77;1732047;82;21190;-43
2021/04/24 03:09:23;;;;;;;0.10;0.10;;;;;;;2.17;79.76;100860.73;1731860;82;21163;-44
2021/04/24 03:11:52;;;;;;;0.00;0.00;;;;;;;2.21;79.65;100860.61;1711724;81;21573;-43
2021/04/24 03:14:20;;;;;;;0.15;0.15;;;;;;;2.25;79.55;100852.91;1732082;82;21675;-44
2021/04/24 03:16:47;;;;;;;0.72;0.37;;;;;;;2.29;79.49;100854.97;1731905;82;21215;-44
2021/04/24 03:19:15;;;;;;;0.30;0.30;;;;;;;2.34;79.44;100860.54;1721103;81;21118;-43
2021/04/24 03:21:42;;;;;;;0.23;0.23;;;;;;;2.40;79.21;100861.57;1694817;84;21182;-44
2021/04/24 03:24:10;;;;;;;1.85;1.10;;;;;;;2.46;79.08;100863.92;1703021;82;21122;-44
2021/04/24 03:26:37;;;;;;;0.03;0.03;;;;;;;2.51;78.97;100865.45;1702865;84;21186;-44
2021/04/24 03:29:04;;;;;;;0.10;0.10;;;;;;;2.56;78.84;100866.45;1706730;82;21158;-44
2021/04/24 03:31:32;;;;;;;0.55;0.40;;;;;;;2.59;78.71;100868.70;1732439;82;21150;-44
2021/04/24 03:33:59;;;;;;;1.10;0.95;;;;;;;2.65;78.59;100871.61;1732425;81;21157;-43
2021/04/24 03:36:27;;;;;;;0.45;0.45;;;;;;;2.70;78.35;100871.78;1732395;82;21154;-44
2021/04/24 03:38:55;;;;;;;0.00;0.00;;;;;;;2.76;78.18;100872.25;1732596;81;21153;-44
2021/04/24 03:41:22;;;;;;;0.35;0.35;;;;;;;2.81;77.99;100877.82;1732331;82;21560;-44
2021/04/24 03:43:49;;;;;;;2.05;1.00;;;;;;;2.87;77.83;100878.31;1732229;81;21596;-44
2021/04/24 03:46:18;;;;;;;0.10;0.10;;;;;;;2.96;77.49;100873.47;1732111;82;21174;-44
2021/04/24 03:48:45;;;;;;;0.03;0.03;;;;;;;3.09;77.18;100877.94;1732214;81;21150;-44
2021/04/24 03:51:13;;;;;;;0.10;0.10;;;;;;;3.22;76.94;100885.95;1732299;82;21157;-44
2021/04/24 03:53:41;;;;;;;0.80;0.80;;;;;;;3.39;76.56;100887.05;1732350;81;21588;-44
2021/04/24 03:56:08;;;;;;;0.42;0.42;;;;;;;3.61;75.99;100888.83;1732264;82;21154;-44
2021/04/24 03:58:37;;;;;;;0.53;0.37;;;;;;;3.81;75.06;100895.92;1732607;81;21106;-44
2021/04/24 04:01:04;;;;;;;0.00;0.00;;;;;;;3.97;74.33;100898.55;1732225;82;21153;-44
2021/04/24 04:03:32;;;;;;;0.00;0.00;;;;;;;4.11;73.90;100894.65;1732116;81;21578;-44
2021/04/24 04:06:00;;;;;;;0.20;0.20;;;;;;;4.18;73.04;100892.70;1731797;82;38009;-44
2021/04/24 04:08:28;;;;;;;0.00;0.00;;;;;;;4.22;72.82;100896.58;1732322;81;21567;-44
2021/04/24 04:10:55;;;;;;;0.15;0.15;;;;;;;4.22;72.78;100892.52;1729468;81;21734;-44
2021/04/24 04:13:22;;;;;;;0.10;0.10;;;;;;;4.21;72.54;100896.83;1726928;81;21508;-44
2021/04/24 04:15:51;;;;;;;0.68;0.68;;;;;;;4.20;72.68;100905.98;1727057;83;21162;-44
2021/04/24 04:18:20;;;;;;;0.00;0.00;;;;;;;4.20;72.77;100902.74;1726764;81;21438;-44
2021/04/24 04:20:53;;;;;;;3.12;1.07;;;;;;;4.24;72.79;100901.78;1699835;83;21158;-44
2021/04/24 04:23:22;;;;;;;0.57;0.57;;;;;;;4.31;72.70;100902.53;1726941;81;21557;-44
2021/04/24 04:25:51;;;;;;;0.10;0.10;;;;;;;4.39;72.39;100905.45;1700193;83;21173;-44
2021/04/24 04:28:19;;;;;;;0.70;0.70;;;;;;;4.47;72.37;100911.89;1727151;81;21126;-44
2021/04/24 04:30:48;;;;;;;0.50;0.40;;;;;;;4.52;72.02;100910.69;1700398;83;21458;-44
2021/04/24 04:33:15;;;;;;;5.72;1.10;;;;;;;4.52;72.15;100917.45;1727124;81;21158;-43
2021/04/24 04:35:43;;;;;;;6.65;0.75;;;;;;;4.54;72.02;100916.70;1727114;83;21592;-44
2021/04/24 04:38:11;;;;;;;2.92;1.80;;;;;;;4.52;72.00;100918.80;1727124;81;21143;-44
2021/04/24 04:40:38;;;;;;;1.45;1.37;;;;;;;4.48;72.21;100918.98;1727211;83;21165;-43
2021/04/24 04:43:06;;;;;;;0.50;0.50;;;;;;;4.46;72.21;100917.02;1727183;81;21241;-43
2021/04/24 04:45:34;;;;;;;0.20;0.20;;;;;;;4.45;72.35;100919.41;1727166;83;21135;-44
2021/04/24 04:48:01;;;;;;;0.05;0.05;;;;;;;4.43;72.31;100913.42;1727019;81;21656;-44
2021/04/24 04:50:33;;;;;;;0.10;0.10;;;;;;;4.43;72.23;100913.42;1727035;83;21114;-44
2021/04/24 04:53:00;;;;;;;0.03;0.03;;;;;;;4.44;72.35;100912.36;1726981;81;21169;-44
2021/04/24 04:55:27;;;;;;;0.00;0.00;;;;;;;4.45;72.63;100914.84;1727014;82;21675;-43
2021/04/24 04:57:55;;;;;;;0.20;0.20;;;;;;;4.50;72.86;100920.91;1726943;81;21173;-44
2021/04/24 05:00:24;;;;;;;0.10;0.10;;;;;;;4.55;72.97;100923.78;1726983;82;21295;-45
2021/04/24 05:02:51;;;;;;;0.20;0.20;;;;;;;4.60;72.94;100927.13;1726888;81;21110;-44
2021/04/24 05:05:19;;;;;;;0.10;0.10;;;;;;;4.64;72.90;100927.80;1726894;83;21131;-44
2021/04/24 05:07:49;;;;;;;0.10;0.10;;;;;;;4.67;73.16;100925.17;1726802;81;21787;-43
2021/04/24 05:10:18;;;;;;;0.20;0.20;;;;;;;4.70;73.16;100932.33;1730059;81;21501;-44
2021/04/24 05:12:47;;;;;;;0.10;0.10;;;;;;;4.73;73.02;100925.09;1755763;80;21124;-44
2021/04/24 05:15:15;;;;;;;0.00;0.00;;;;;;;4.72;73.00;100923.45;1756223;81;21600;-43
2021/04/24 05:17:43;;;;;;;0.10;0.10;;;;;;;4.71;72.73;100922.31;1745071;81;21137;-44
2021/04/24 05:20:12;;;;;;;0.40;0.40;;;;;;;4.74;73.06;100925.91;1735148;81;21162;-44
2021/04/24 05:22:39;;;;;;;0.20;0.20;;;;;;;4.83;73.31;100927.78;1756519;81;21111;-43
2021/04/24 05:25:07;;;;;;;0.13;0.13;;;;;;;4.96;73.30;100926.23;1742913;80;21134;-44
2021/04/24 05:27:36;;;;;;;0.20;0.20;;;;;;;5.07;72.92;100930.88;1756531;81;21415;-45
2021/04/24 05:30:05;;;;;;;0.00;0.00;;;;;;;5.20;72.99;100931.73;1755868;80;21170;-44
2021/04/24 05:32:33;;;;;;;0.05;0.05;;;;;;;5.35;72.95;100926.16;1755044;81;21574;-44
2021/04/24 05:35:00;;;;;;;0.00;0.00;;;;;;;5.49;72.53;100924.06;1756101;81;21138;-44
2021/04/24 05:37:28;;;;;;;0.08;0.08;;;;;;;5.63;72.52;100928.72;1756283;81;21135;-44
2021/04/24 05:39:56;;;;;;;0.30;0.30;;;;;;;5.78;72.20;100933.67;1756454;80;21119;-44
2021/04/24 05:42:25;;;;;;;0.37;0.15;;;;;;;5.90;71.60;100933.14;1755393;81;21212;-44
2021/04/24 05:44:53;;;;;;;0.75;0.40;;;;;;;5.99;71.27;100934.48;1741159;82;20984;-44
2021/04/24 05:47:21;;;;;;;0.00;0.00;;;;;;;6.09;70.89;100933.06;1746540;81;21156;-44
2021/04/24 05:49:49;;;;;;;0.30;0.30;;;;;;;6.21;70.93;100936.05;1754105;81;21616;-44
2021/04/24 05:52:16;;;;;;;0.45;0.45;;;;;;;6.35;70.32;100932.52;1734484;82;21164;-44
2021/04/24 05:54:44;;;;;;;0.00;0.00;;;;;;;6.52;70.19;100926.36;1707296;82;21289;-44
2021/04/24 05:57:11;;;;;;;0.47;0.47;;;;;;;6.72;69.61;100930.00;1756086;81;21170;-44
2021/04/24 05:59:39;;;;;;;0.40;0.40;;;;;;;6.93;69.52;100936.66;1756299;80;21178;-44
2021/04/24 06:02:06;;;;;;;0.28;0.28;;;;;;;7.14;68.92;100934.59;1753812;81;21136;-44
2021/04/24 06:04:33;;;;;;;0.30;0.30;;;;;;;7.38;68.12;100933.92;1779957;80;21153;-44
2021/04/24 06:07:02;;;;;;;0.00;0.00;;;;;;;7.57;67.04;100937.23;1755025;80;21157;-44
2021/04/24 06:09:30;;;;;;;0.23;0.15;;;;;;;7.64;65.16;100939.25;1730633;81;21177;-44
2021/04/24 06:11:58;;;;;;;0.00;0.00;;;;;;;7.67;64.74;100931.95;1738010;82;21124;-44
2021/04/24 06:14:25;;;;;;;0.47;0.10;;;;;;;7.69;64.69;100938.48;1737102;82;20991;-44
2021/04/24 06:16:53;;;;;;;0.15;0.15;;;;;;;7.70;64.52;100931.45;1737187;81;21102;-44
2021/04/24 06:19:20;;;;;;;0.10;0.10;;;;;;;7.69;63.86;100937.97;1731903;81;21142;-44
2021/04/24 06:21:48;;;;;;;3.40;1.65;;;;;;;7.66;63.38;100937.63;1727696;82;21189;-44
2021/04/24 06:24:15;;;;;;;0.40;0.40;;;;;;;7.62;63.64;100935.14;1731782;81;21130;-44
2021/04/24 06:26:42;;;;;;;0.68;0.68;;;;;;;7.58;63.71;100932.07;1702579;84;21568;-44
2021/04/24 06:29:10;;;;;;;0.47;0.47;;;;;;;7.58;63.97;100924.45;1702769;82;21137;-44
2021/04/24 06:31:40;;;;;;;4.75;0.68;;;;;;;7.61;63.32;100938.91;1702659;84;21161;-44
2021/04/24 06:34:07;;;;;;;0.00;0.00;;;;;;;7.57;62.47;100941.31;1712074;82;21194;-44
2021/04/24 06:36:35;;;;;;;0.50;0.50;;;;;;;7.49;61.91;100945.78;1712007;82;21162;-44
2021/04/24 06:39:06;;;;;;;0.00;0.00;;;;;;;7.37;61.49;100957.27;1702538;84;21166;-44
2021/04/24 06:41:36;;;;;;;0.00;0.00;;;;;;;7.22;61.59;100951.87;1731763;82;21146;-44
2021/04/24 06:44:04;;;;;;;0.00;0.00;;;;;;;7.09;62.01;100946.73;1731250;82;21127;-44
2021/04/24 06:46:32;;;;;;;0.00;0.00;;;;;;;6.98;63.82;100963.39;1730843;82;21147;-44
2021/04/24 06:49:00;;;;;;;0.00;0.00;;;;;;;6.84;64.69;100951.97;1726081;81;21162;-44
2021/04/24 06:51:28;;;;;;;0.40;0.23;;;;;;;6.75;65.41;100960.75;1731602;82;21659;-44
2021/04/24 06:53:55;;;;;;;0.17;0.17;;;;;;;6.67;65.14;100957.88;1731709;81;21158;-44
2021/04/24 06:56:23;;;;;;;0.08;0.08;;;;;;;6.56;65.70;100962.29;1720877;83;21166;-44
2021/04/24 06:58:50;;;;;;;0.10;0.10;;;;;;;6.58;66.49;100967.49;1723569;83;21134;-44
2021/04/24 07:01:17;;;;;;;1.25;1.02;;;;;;;6.75;66.97;100956.67;1731986;81;21491;-44
2021/04/24 07:03:45;;;;;;;0.78;0.78;;;;;;;7.03;66.13;100955.87;1728664;82;21130;-44
2021/04/24 07:06:14;;;;;;;0.10;0.10;;;;;;;7.28;65.64;100956.32;1737317;82;21202;-44
2021/04/24 07:08:41;;;;;;;0.00;0.00;;;;;;;7.43;65.02;100958.48;1701063;84;21178;-44
2021/04/24 07:11:08;;;;;;;0.10;0.10;;;;;;;7.68;64.79;100954.53;1732756;81;21149;-44
2021/04/24 07:13:38;;;;;;;0.00;0.00;;;;;;;7.91;63.73;100961.68;1737273;82;21199;-41
2021/04/24 07:16:06;;;;;;;1.37;0.33;;;;;;;8.00;62.02;100958.83;1737321;82;21097;-40
2021/04/24 07:18:34;;;;;;;0.37;0.37;;;;;;;7.98;59.11;100960.43;1737368;81;21523;-40
2021/04/24 07:21:01;;;;;;;0.10;0.10;;;;;;;7.91;58.11;100959.81;1707859;83;21194;-40
2021/04/24 07:23:32;;;;;;;0.10;0.10;;;;;;;7.81;57.49;100962.34;1707882;82;21188;-40
2021/04/24 07:26:00;;;;;;;0.10;0.10;;;;;;;7.66;56.64;100957.48;1715286;82;21160;-40
2021/04/24 07:28:28;;;;;;;0.25;0.25;;;;;;;7.56;56.05;100962.77;1737180;82;21184;-40
2021/04/24 07:30:55;;;;;;;0.20;0.20;;;;;;;7.49;56.93;100972.98;1737429;82;21118;-39
2021/04/24 07:33:23;;;;;;;0.08;0.08;;;;;;;7.52;57.84;100962.98;1737595;81;21201;-41
2021/04/24 07:35:52;;;;;;;0.20;0.20;;;;;;;7.69;58.55;100969.26;1737577;82;21671;-40
2021/04/24 07:38:20;;;;;;;0.10;0.10;;;;;;;7.93;57.20;100974.51;1736702;82;21126;-40
2021/04/24 07:40:48;;;;;;;0.23;0.23;;;;;;;8.14;57.79;100966.94;1708241;82;21192;-41
2021/04/24 07:43:15;;;;;;;0.00;0.00;;;;;;;8.44;56.31;100963.02;1737674;82;21555;-40
2021/04/24 07:45:43;;;;;;;0.10;0.10;;;;;;;8.54;56.10;100964.50;1737663;82;21161;-40
2021/04/24 07:48:10;;;;;;;0.00;0.00;;;;;;;8.58;55.09;100959.36;1737886;82;21146;-40
2021/04/24 07:50:40;;;;;;;0.95;0.10;;;;;;;8.68;54.49;100963.59;1737843;82;21110;-40
2021/04/24 07:53:07;;;;;;;0.37;0.33;;;;;;;8.82;54.65;100968.91;1737575;82;21217;-41
2021/04/24 07:55:36;;;;;;;0.03;0.03;;;;;;;9.03;54.19;100954.98;1727871;82;21483;-41
2021/04/24 07:58:04;;;;;;;0.00;0.00;;;;;;;9.26;53.37;100973.48;1737642;82;21133;-41
2021/04/24 08:00:31;;;;;;;0.20;0.20;;;;;;;9.33;53.88;100975.46;1737486;82;21137;-40
2021/04/24 08:02:59;;;;;;;0.10;0.10;;;;;;;9.22;55.15;100977.80;1737682;81;21644;-39
2021/04/24 08:05:27;;;;;;;0.10;0.10;;;;;;;8.99;55.85;100978.38;1737343;82;21173;-40
2021/04/24 08:07:57;;;;;;;0.10;0.10;;;;;;;8.76;58.02;100982.75;1737321;81;21602;-40
2021/04/24 08:10:25;;;;;;;0.20;0.20;;;;;;;8.39;59.11;100981.98;1708253;82;21121;-41
2021/04/24 08:12:52;;;;;;;0.00;0.00;;;;;;;8.14;59.82;100987.90;1751567;81;21178;-40
2021/04/24 08:15:21;;;;;;;0.00;0.00;;;;;;;8.06;59.64;100990.52;1756147;81;21135;-40
2021/04/24 08:17:49;;;;;;;0.47;0.47;;;;;;;8.14;59.55;100979.73;1752185;81;21142;-40
2021/04/24 08:20:16;;;;;;;1.55;0.37;;;;;;;8.34;59.19;100979.19;1749030;81;20996;-40
2021/04/24 08:22:44;;;;;;;0.17;0.10;;;;;;;8.56;58.61;100978.70;1752452;81;21546;-40
2021/04/24 08:25:13;;;;;;;0.08;0.08;;;;;;;8.74;57.31;100980.82;1752333;80;21148;-41
2021/04/24 08:27:41;;;;;;;1.70;0.37;;;;;;;8.86;57.28;100978.78;1752799;81;21150;-39
2021/04/24 08:30:10;;;;;;;0.03;0.03;;;;;;;9.05;56.61;100968.38;1728152;81;21146;-41
2021/04/24 08:32:38;;;;;;;0.08;0.08;;;;;;;9.24;54.39;100968.81;1755807;81;21158;-40
2021/04/24 08:35:07;;;;;;;0.55;0.23;;;;;;;9.39;54.36;100958.05;1753836;80;21173;-41
2021/04/24 08:37:35;;;;;;;0.00;0.00;;;;;;;9.58;54.50;100954.95;1779629;80;21173;-39
2021/04/24 08:40:06;;;;;;;0.57;0.20;;;;;;;9.59;52.16;100953.85;1779881;80;21136;-39
2021/04/24 08:42:33;;;;;;;0.85;0.85;;;;;;;9.44;51.87;100943.63;1776812;80;20994;-39
2021/04/24 08:45:13;;;;;;;0.00;0.00;;;;;;;9.43;52.58;100945.55;1756429;81;21091;-40
2021/04/24 08:47:34;;;;;;;0.00;0.00;;;;;;;9.66;51.90;100947.64;1733108;82;21157;-40
2021/04/24 08:50:01;;;;;;;0.00;0.00;;;;;;;9.88;49.03;100946.16;1735043;81;21019;-41
2021/04/24 08:52:28;;;;;;;0.53;0.20;;;;;;;10.03;48.62;100944.89;1734741;82;21551;-40
2021/04/24 08:54:56;;;;;;;0.00;0.00;;;;;;;10.18;48.51;100939.25;1758804;80;21437;-40
2021/04/24 08:57:24;;;;;;;0.00;0.00;;;;;;;10.39;48.07;100937.48;1734816;82;21555;-40
2021/04/24 08:59:52;;;;;;;0.00;0.00;;;;;;;10.54;46.64;100927.43;1724449;81;21130;-40
2021/04/24 09:02:19;;;;;;;0.00;0.00;;;;;;;10.49;46.73;100928.78;1734639;82;21176;-41
2021/04/24 09:04:46;;;;;;;0.25;0.20;;;;;;;10.38;46.50;100927.63;1734547;81;21137;-41
2021/04/24 09:07:14;;;;;;;0.42;0.15;;;;;;;10.23;45.18;100948.28;1707543;82;21162;-40
2021/04/24 09:09:41;;;;;;;0.00;0.00;;;;;;;9.94;45.11;100987.96;1734653;81;21142;-40
2021/04/24 09:12:08;;;;;;;0.10;0.10;;;;;;;9.42;50.16;101001.20;1734195;82;21133;-40
2021/04/24 09:14:36;;;;;;;0.98;0.65;;;;;;;8.74;54.78;101004.80;1791591;80;21149;-40
2021/04/24 09:17:04;;;;;;;0.10;0.00;;;;;;;8.07;59.53;101027.53;1743326;79;21128;-40
2021/04/24 09:19:37;;;;;;;0.20;0.20;;;;;;;7.48;63.10;101044.22;1767680;80;21099;-41
2021/04/24 09:22:22;;;;;;;0.00;0.00;;;;;;;6.94;65.29;101036.11;1753594;81;21157;-40
2021/04/24 09:24:51;;;;;;;0.00;0.00;;;;;;;6.49;67.09;101047.66;1723592;83;21577;-40
2021/04/24 09:27:19;;;;;;;0.05;0.05;;;;;;;6.13;69.13;101060.39;1741203;82;21156;-39
2021/04/24 09:29:48;;;;;;;0.30;0.30;;;;;;;5.88;70.02;101063.28;1715724;82;21129;-41
2021/04/24 09:32:19;;;;;;;0.17;0.17;;;;;;;5.68;70.74;101063.59;1791595;80;21141;-40
2021/04/24 09:34:52;;;;;;;0.03;0.03;;;;;;;5.43;72.27;101054.27;1782020;80;21125;-42
2021/04/24 09:37:22;;;;;;;0.00;0.00;;;;;;;5.21;73.70;101037.69;1760571;81;21675;-40
2021/04/24 09:39:52;;;;;;;0.00;0.00;;;;;;;5.00;73.99;101024.94;1766672;80;21535;-40
2021/04/24 09:42:40;;;;;;;0.00;0.00;;;;;;;4.91;74.31;101027.13;1791604;80;21138;-40
2021/04/24 09:45:16;;;;;;;0.00;0.00;;;;;;;4.91;76.14;101039.84;1791091;78;21117;-41
2021/04/24 09:47:45;;;;;;;0.15;0.15;;;;;;;5.00;77.46;101031.72;1757099;81;21103;-40
2021/04/24 09:50:19;;;;;;;0.33;0.20;;;;;;;5.14;77.90;101017.45;1741448;82;21161;-42
2021/04/24 09:52:46;;;;;;;0.25;0.15;;;;;;;5.26;78.13;101010.73;1741358;81;21014;-40
2021/04/24 09:55:18;;;;;;;3.62;2.05;;;;;;;5.37;78.25;101018.08;1741523;82;21113;-40
2021/04/24 09:57:45;;;;;;;0.08;0.08;;;;;;;5.52;78.58;101013.05;1785624;78;21125;-41
2021/04/24 10:00:15;;;;;;;0.00;0.00;;;;;;;5.76;78.54;101006.30;1766906;80;21112;-41
2021/04/24 10:02:44;;;;;;;0.10;0.10;;;;;;;6.05;78.76;100998.34;1756953;81;21196;-40
2021/04/24 10:05:22;;;;;;;0.10;0.10;;;;;;;6.40;77.21;100993.70;1756965;81;21184;-40
2021/04/24 10:07:55;;;;;;;0.00;0.00;;;;;;;6.75;74.64;100992.83;1757004;81;21133;-40
2021/04/24 10:10:38;;;;;;;0.00;0.00;;;;;;;7.07;71.57;100987.75;1757249;81;21120;-40
2021/04/24 10:13:08;;;;;;;0.10;0.00;;;;;;;7.40;69.71;100985.34;1701292;83;21311;-40
2021/04/24 10:15:41;;;;;;;1.55;0.30;;;;;;;7.80;63.58;100985.73;1710204;83;21155;-40
2021/04/24 10:18:10;;;;;;;0.20;0.20;;;;;;;8.13;61.94;100989.77;1720152;81;21270;-40
2021/04/24 10:20:39;;;;;;;0.00;0.00;;;;;;;8.41;58.58;100977.14;1700101;81;21124;-40
2021/04/24 10:23:08;;;;;;;0.00;0.00;;;;;;;8.51;55.44;100965.56;1694714;83;21083;-40
2021/04/24 10:25:36;;;;;;;0.10;0.10;;;;;;;8.70;55.77;100975.03;1714023;83;21173;-40
2021/04/24 10:28:04;;;;;;;0.10;0.10;;;;;;;9.02;54.19;100982.49;1707528;82;21189;-40
2021/04/24 10:30:31;;;;;;;0.20;0.20;;;;;;;9.31;50.70;100981.70;1737128;82;21150;-39
2021/04/24 10:33:00;;;;;;;0.30;0.30;;;;;;;9.50;49.64;100981.35;1737679;82;21165;-41
2021/04/24 10:35:30;;;;;;;0.20;0.20;;;;;;;9.62;47.71;100986.91;1733671;82;21173;-39
2021/04/24 10:37:59;;;;;;;0.00;0.00;;;;;;;9.73;45.56;100991.91;1711057;82;21153;-40
2021/04/24 10:40:27;;;;;;;0.00;0.00;;;;;;;9.80;45.87;100993.88;1673054;83;21548;-39
2021/04/24 10:42:55;;;;;;;0.45;0.45;;;;;;;9.82;43.31;100980.80;1721282;81;21000;-39
2021/04/24 10:45:33;;;;;;;0.00;0.00;;;;;;;9.80;43.43;100988.97;1723632;83;21435;-40
2021/04/24 10:48:02;;;;;;;0.00;0.00;;;;;;;9.81;42.32;100980.50;1723814;83;21478;-40
2021/04/24 10:50:45;;;;;;;0.23;0.23;;;;;;;9.86;42.78;100982.45;1723811;83;21156;-39
2021/04/24 10:53:28;;;;;;;0.05;0.05;;;;;;;10.00;43.27;100978.73;1723689;81;21592;-40
2021/04/24 10:56:01;;;;;;;0.20;0.20;;;;;;;10.17;43.43;100988.14;1723907;83;21138;-40
2021/04/24 10:58:30;;;;;;;0.15;0.15;;;;;;;10.25;43.83;100996.64;1723617;81;21154;-39
2021/04/24 11:01:00;;;;;;;0.00;0.00;;;;;;;10.24;43.58;100986.81;1723822;83;21186;-39
2021/04/24 11:03:45;;;;;;;0.10;0.10;;;;;;;10.14;40.72;101005.88;1723666;81;21213;-39
2021/04/24 11:06:17;;;;;;;1.30;0.42;;;;;;;9.94;37.88;100994.27;1731953;81;21134;-40
2021/04/24 11:08:46;;;;;;;0.75;0.60;;;;;;;9.79;38.38;100986.78;1732164;82;21170;-40
2021/04/24 11:11:18;;;;;;;9.13;3.60;;;;;;;9.86;37.97;101011.92;1702641;84;21647;-40
2021/04/24 11:13:53;;;;;;;5.03;2.50;;;;;;;9.89;37.27;101002.39;1732898;81;21456;-40
2021/04/24 11:16:24;;;;;;;3.15;0.90;;;;;;;9.75;36.88;100997.11;1695279;83;21143;-41
2021/04/24 11:18:52;;;;;;;0.45;0.45;;;;;;;9.55;36.95;100991.77;1734562;81;21869;-41
2021/04/24 11:21:27;;;;;;;0.78;0.78;;;;;;;9.52;38.11;100984.10;1676694;84;21183;-39
2021/04/24 11:24:12;;;;;;;0.37;0.37;;;;;;;9.76;38.47;100987.28;1734513;81;21138;-40
2021/04/24 11:26:46;;;;;;;1.92;1.82;;;;;;;10.16;36.67;100977.73;1735803;82;21154;-40
2021/04/24 11:29:17;;;;;;;0.00;0.00;;;;;;;10.52;36.73;100979.34;1745161;82;21006;-40
2021/04/24 11:31:54;;;;;;;2.70;1.03;;;;;;;10.67;35.07;100979.41;1720921;82;21193;-41
2021/04/24 11:34:41;;;;;;;5.75;1.60;;;;;;;10.69;35.21;100986.80;1744138;82;21145;-39
2021/04/24 11:37:23;;;;;;;8.50;1.40;;;;;;;10.61;35.45;100987.31;1736460;82;21417;-40
2021/04/24 11:40:22;;;;;;;3.77;1.13;;;;;;;10.63;35.56;100985.14;1747918;82;21721;-40